SBOSBO ATL / KATL
Speedbird OnlineSpeedbird Online ATL / KATL

Hartsfield Jackson Atlanta International Airport
06:56 22.7°C

Location Atlanta, United States
Latitude: 33.6367
Longitude: -84.428101
Altitude 313 Meter / 1026 Feet
Distance 6,798 KM / 4,224 Miles
from London.
Time Zone UTC -4 hours (America/New_York)
Codes IATA: ATL
ICAO: KATL
Currency £1 equals USD 1.23
METAR KATL 270952Z 24004KT 10SM FEW065 BKN090 25/19 A3009 RMK AO2 SLP176 T02500189
TAF KATL 270950Z 2710/2812 21007KT P6SM VCSH BKN060 BKN090 FM271700 33008KT P6SM -SHRA BKN060 TEMPO 2718/2722 4SM TSRA BR OVC025CB FM280000 33007KT P6SM VCSH SCT060 OVC100 FM280500 04004KT P6SM BKN040
Weather As Of 27 Jun 2022 06:56
Description Overcast clouds
Wind 5 km/h from South-West (215°)
Cloud Cover 98%
Precipitation Rain: none, Snow: none
Sunrise 06:29
Sunset 20:51
Lounges The Club @ ATL, International Terminal
American Airlines Admirals Club, North Terminal
Rotations During the last 90 days there were
80 flights from LHR
1 flights from IAD
79 flights to LHR


© 2017-2022 Speedbird Online